Time;durP1;ratioP1;P1;durP2;ratioP2;P2;SDS_P1;SDS_P2;PMS_P1;PMS_P2;Temp;Humidity;BMP_temperature;BMP_pressure;BME280_temperature;BME280_humidity;BME280_pressure;Samples;Min_cycle;Max_cycle;Signal;HPM_P1;HPM_P2
2022/08/30 00:02:59;;;;;;;16.08;10.75;;;12.90;99.90;;;;;;8260452;28;20172;-79
2022/08/30 00:07:02;;;;;;;19.33;10.45;;;12.80;99.90;;;;;;8276865;28;20026;-80
2022/08/30 00:11:05;;;;;;;14.15;9.82;;;12.90;99.90;;;;;;8276968;28;20113;-79
2022/08/30 00:15:06;;;;;;;14.27;10.60;;;12.70;99.90;;;;;;8275996;28;20037;-80
2022/08/30 00:19:06;;;;;;;18.30;10.30;;;12.60;99.90;;;;;;8276574;28;20026;-80
2022/08/30 00:23:07;;;;;;;17.38;11.18;;;12.60;99.90;;;;;;8276962;28;20030;-79
2022/08/30 00:27:07;;;;;;;17.60;11.80;;;12.70;99.90;;;;;;8276211;28;20026;-80
2022/08/30 00:31:09;;;;;;;17.08;12.02;;;12.60;99.90;;;;;;8294369;28;20026;-80
2022/08/30 00:35:12;;;;;;;16.27;11.50;;;12.60;99.90;;;;;;8276164;28;20036;-81
2022/08/30 00:39:13;;;;;;;14.70;10.52;;;12.50;99.90;;;;;;8276243;28;20285;-80
2022/08/30 00:43:26;;;;;;;14.05;10.95;;;12.50;99.90;;;;;;8301083;28;20030;-80
2022/08/30 00:47:26;;;;;;;14.38;9.32;;;12.50;99.90;;;;;;8275742;28;20061;-80
2022/08/30 00:51:27;;;;;;;15.23;10.10;;;12.50;99.90;;;;;;8275827;28;20033;-81
2022/08/30 00:55:28;;;;;;;16.08;10.77;;;12.40;99.90;;;;;;8276033;28;20026;-79
2022/08/30 00:59:30;;;;;;;21.40;11.35;;;12.30;99.90;;;;;;8293440;28;20103;-80
2022/08/30 01:03:32;;;;;;;15.02;10.82;;;12.40;99.90;;;;;;8275753;28;20022;-80
2022/08/30 01:07:33;;;;;;;19.92;11.93;;;12.30;99.90;;;;;;8274804;28;20030;-80
2022/08/30 01:11:36;;;;;;;18.23;12.07;;;12.40;99.90;;;;;;8292846;28;20084;-80
2022/08/30 01:15:37;;;;;;;17.63;12.23;;;12.40;99.90;;;;;;8292542;28;20025;-80
2022/08/30 01:19:45;;;;;;;14.98;11.02;;;12.30;99.90;;;;;;8275464;28;20492;-80
2022/08/30 01:23:49;;;;;;;15.07;9.73;;;12.20;99.90;;;;;;8275844;28;20014;-80
2022/08/30 01:27:53;;;;;;;16.13;10.70;;;12.20;99.90;;;;;;8266974;28;20026;-79
2022/08/30 01:31:54;;;;;;;19.83;11.95;;;12.10;99.90;;;;;;8275838;28;20029;-80
2022/08/30 01:36:01;;;;;;;19.67;11.95;;;12.00;99.90;;;;;;8291986;28;20040;-80
2022/08/30 01:40:03;;;;;;;19.55;12.57;;;12.10;99.90;;;;;;8275416;28;20028;-80
2022/08/30 01:44:09;;;;;;;19.08;11.95;;;12.10;99.90;;;;;;8275600;28;20022;-80
2022/08/30 01:48:11;;;;;;;18.52;12.68;;;12.10;99.90;;;;;;8292701;28;20033;-80
2022/08/30 01:52:13;;;;;;;17.92;12.40;;;12.00;99.90;;;;;;8297551;28;20038;-79
2022/08/30 01:56:14;;;;;;;19.08;12.65;;;12.10;99.90;;;;;;8307897;28;20033;-81
2022/08/30 02:00:15;;;;;;;15.88;11.57;;;12.10;99.90;;;;;;8275038;28;20029;-80
2022/08/30 02:04:16;;;;;;;16.30;11.20;;;12.00;99.90;;;;;;8296477;28;20022;-80
2022/08/30 02:08:17;;;;;;;18.70;12.32;;;12.00;99.90;;;;;;8280217;28;20045;-80
2022/08/30 02:12:19;;;;;;;19.48;12.57;;;12.00;99.90;;;;;;8280804;28;20022;-80
2022/08/30 02:16:21;;;;;;;18.10;12.23;;;12.00;99.90;;;;;;8279839;28;20021;-80
2022/08/30 02:20:22;;;;;;;18.92;12.18;;;12.00;99.90;;;;;;8264427;28;20018;-80
2022/08/30 02:24:23;;;;;;;15.45;10.88;;;11.80;99.90;;;;;;8280223;28;20026;-80
2022/08/30 02:28:24;;;;;;;18.25;10.18;;;11.70;99.90;;;;;;8300656;28;20036;-79
2022/08/30 02:32:25;;;;;;;17.60;11.88;;;11.70;99.90;;;;;;8280034;28;20456;-80
2022/08/30 02:36:26;;;;;;;18.38;11.23;;;11.50;99.90;;;;;;8279402;28;20022;-80
2022/08/30 02:40:26;;;;;;;18.10;12.05;;;11.50;99.90;;;;;;8279493;28;20032;-80
2022/08/30 02:44:27;;;;;;;15.25;10.63;;;11.50;99.90;;;;;;8280365;28;20045;-80
2022/08/30 02:48:27;;;;;;;18.15;11.70;;;11.40;99.90;;;;;;8266380;28;20175;-80
2022/08/30 02:52:28;;;;;;;16.35;11.30;;;11.40;99.90;;;;;;8279653;28;20026;-80
2022/08/30 02:56:28;;;;;;;16.58;11.45;;;11.40;99.90;;;;;;8263099;28;20025;-81
2022/08/30 03:00:29;;;;;;;19.48;12.35;;;11.40;99.90;;;;;;8297115;28;20475;-80
2022/08/30 03:04:30;;;;;;;17.58;12.07;;;11.40;99.90;;;;;;8296295;28;20022;-79
2022/08/30 03:08:31;;;;;;;17.23;12.07;;;11.50;99.90;;;;;;8296090;28;20515;-79
2022/08/30 03:12:32;;;;;;;18.45;11.52;;;11.40;99.90;;;;;;8278402;28;20575;-79
2022/08/30 03:16:32;;;;;;;14.60;10.07;;;11.30;99.90;;;;;;8277640;28;20080;-80
2022/08/30 03:20:36;;;;;;;12.43;9.65;;;11.20;99.90;;;;;;8270429;28;20032;-79
2022/08/30 03:24:37;;;;;;;11.05;8.73;;;11.30;99.90;;;;;;8294489;28;20018;-80
2022/08/30 03:28:37;;;;;;;13.52;9.40;;;11.20;99.90;;;;;;8278685;28;20433;-79
2022/08/30 03:32:39;;;;;;;12.27;9.02;;;11.10;99.90;;;;;;8278576;28;20064;-79
2022/08/30 03:36:40;;;;;;;12.00;9.15;;;11.10;99.90;;;;;;8265956;28;20029;-79
2022/08/30 03:40:41;;;;;;;13.88;9.70;;;11.00;99.90;;;;;;8281190;28;20028;-79
2022/08/30 03:44:41;;;;;;;19.02;10.15;;;11.00;99.90;;;;;;8273955;28;20038;-80
2022/08/30 03:48:42;;;;;;;15.88;10.05;;;11.00;99.90;;;;;;8273770;28;20026;-80
2022/08/30 03:52:44;;;;;;;15.77;10.73;;;10.90;99.90;;;;;;8295660;28;20036;-80
2022/08/30 03:56:45;;;;;;;16.33;11.63;;;10.80;99.90;;;;;;8261825;28;20411;-80
2022/08/30 04:00:45;;;;;;;17.45;10.43;;;10.80;99.90;;;;;;8272828;28;20082;-80
2022/08/30 04:04:46;;;;;;;17.45;10.55;;;10.80;99.90;;;;;;8278423;28;20033;-80
2022/08/30 04:08:46;;;;;;;15.20;9.70;;;10.70;99.90;;;;;;8273773;28;20049;-80
2022/08/30 04:12:49;;;;;;;16.75;11.32;;;10.70;99.90;;;;;;8294449;28;20033;-80
2022/08/30 04:16:50;;;;;;;15.13;11.05;;;10.70;99.90;;;;;;8274603;28;20050;-79
2022/08/30 04:20:51;;;;;;;17.40;11.65;;;10.80;99.90;;;;;;8275731;28;20046;-81
2022/08/30 04:24:52;;;;;;;23.75;13.13;;;10.80;99.90;;;;;;8275665;28;20406;-79
2022/08/30 04:28:54;;;;;;;23.90;13.02;;;10.90;99.90;;;;;;8264230;28;20030;-79
2022/08/30 04:32:54;;;;;;;19.83;12.75;;;10.90;99.90;;;;;;8275345;28;20427;-79
2022/08/30 04:36:55;;;;;;;22.80;12.82;;;10.80;99.90;;;;;;8270672;28;20037;-80
2022/08/30 04:40:56;;;;;;;20.42;13.63;;;10.90;99.90;;;;;;8280499;28;20029;-79
2022/08/30 04:44:59;;;;;;;16.67;11.35;;;10.90;99.90;;;;;;8279525;28;20613;-80
2022/08/30 04:48:59;;;;;;;28.33;16.70;;;10.90;99.90;;;;;;8283981;28;20029;-80
2022/08/30 04:53:00;;;;;;;24.42;16.17;;;10.90;99.90;;;;;;8275493;28;20459;-79
2022/08/30 04:57:00;;;;;;;19.67;12.95;;;11.00;99.90;;;;;;8274723;28;20037;-80
2022/08/30 05:01:01;;;;;;;23.70;13.90;;;11.00;99.90;;;;;;8276580;28;20018;-80
2022/08/30 05:09:21;;;;;;;19.33;12.40;;;11.10;99.90;;;;;;8293648;28;20033;-81
2022/08/30 05:13:22;;;;;;;16.15;10.88;;;11.10;99.90;;;;;;8275571;28;20396;-80
2022/08/30 05:17:23;;;;;;;17.70;10.93;;;11.30;99.90;;;;;;8274967;28;20022;-80
2022/08/30 05:21:25;;;;;;;16.52;11.52;;;11.40;99.90;;;;;;8275722;28;20029;-80
2022/08/30 05:25:30;;;;;;;19.02;12.27;;;11.50;99.90;;;;;;8275225;28;20483;-80
2022/08/30 05:29:31;;;;;;;21.08;13.60;;;11.70;99.90;;;;;;8275653;28;20033;-80
2022/08/30 05:33:31;;;;;;;19.00;13.10;;;11.90;99.90;;;;;;8275654;28;20044;-81
2022/08/30 05:37:32;;;;;;;19.80;12.77;;;12.10;99.90;;;;;;8279296;28;20026;-80
2022/08/30 05:41:34;;;;;;;19.48;12.90;;;12.20;99.90;;;;;;8274015;28;20739;-80
2022/08/30 05:45:34;;;;;;;17.80;12.80;;;12.40;99.90;;;;;;8298852;28;20022;-79
2022/08/30 05:49:35;;;;;;;17.17;11.48;;;12.70;99.90;;;;;;8281175;28;20037;-80
2022/08/30 05:53:36;;;;;;;15.35;10.82;;;12.80;99.90;;;;;;8281632;28;20026;-80
2022/08/30 05:57:39;;;;;;;15.13;10.50;;;12.80;99.90;;;;;;8280547;28;20037;-80
2022/08/30 06:01:45;;;;;;;16.20;11.73;;;13.10;99.90;;;;;;8280787;28;20022;-80
2022/08/30 06:05:45;;;;;;;16.70;10.77;;;13.10;99.90;;;;;;8280941;28;20026;-80
2022/08/30 06:09:46;;;;;;;14.25;10.75;;;13.30;99.90;;;;;;8297943;28;20052;-80
2022/08/30 06:13:48;;;;;;;13.60;10.27;;;13.60;99.90;;;;;;8272388;28;20022;-79
2022/08/30 06:17:48;;;;;;;15.07;10.80;;;13.70;99.90;;;;;;8297293;28;20053;-80
2022/08/30 06:21:50;;;;;;;13.43;10.13;;;13.80;99.90;;;;;;8298486;28;20022;-80
2022/08/30 06:25:51;;;;;;;15.40;11.52;;;14.00;99.90;;;;;;8279841;28;20022;-80
2022/08/30 06:29:52;;;;;;;18.00;12.13;;;14.10;99.90;;;;;;8279973;28;20026;-81
2022/08/30 06:33:53;;;;;;;14.52;11.52;;;14.10;99.90;;;;;;8297829;28;20029;-81
2022/08/30 06:37:54;;;;;;;15.05;11.52;;;14.30;99.90;;;;;;8304300;28;20241;-80
2022/08/30 06:41:55;;;;;;;17.05;12.35;;;14.70;99.90;;;;;;8279637;28;20373;-81
2022/08/30 06:46:00;;;;;;;16.92;12.32;;;14.90;99.90;;;;;;8296598;28;20018;-81
2022/08/30 06:50:00;;;;;;;17.23;12.98;;;15.40;99.90;;;;;;8275276;28;20030;-81
2022/08/30 06:54:03;;;;;;;16.35;12.45;;;15.60;99.90;;;;;;8279117;28;20021;-81
2022/08/30 06:58:03;;;;;;;18.35;13.43;;;16.10;99.90;;;;;;8278742;28;20443;-80
2022/08/30 07:02:05;;;;;;;18.65;12.73;;;16.60;99.90;;;;;;8296578;28;20037;-81
2022/08/30 07:06:06;;;;;;;15.38;11.68;;;16.80;99.90;;;;;;8277859;28;20049;-81
2022/08/30 07:10:08;;;;;;;15.35;11.85;;;17.30;99.90;;;;;;8296083;28;20083;-80
2022/08/30 07:14:08;;;;;;;14.52;11.00;;;17.70;99.90;;;;;;8278047;28;20021;-81
2022/08/30 07:22:32;;;;;;;14.32;9.63;;;19.50;99.90;;;;;;8296815;28;20037;-81
2022/08/30 07:26:36;;;;;;;9.65;8.52;;;20.40;99.90;;;;;;8295692;28;20030;-81
2022/08/30 07:30:37;;;;;;;11.13;8.88;;;20.80;99.90;;;;;;8295828;28;20033;-81
2022/08/30 07:34:38;;;;;;;10.63;8.98;;;21.40;99.90;;;;;;8278037;28;20026;-81
2022/08/30 07:38:38;;;;;;;9.98;8.43;;;22.40;99.90;;;;;;8296381;28;20034;-82
2022/08/30 07:42:39;;;;;;;10.38;8.88;;;22.50;99.90;;;;;;8278591;28;20018;-81
2022/08/30 07:46:40;;;;;;;8.25;7.40;;;22.60;99.90;;;;;;8277299;28;20080;-81
2022/08/30 07:50:45;;;;;;;8.45;7.45;;;23.10;99.90;;;;;;8270245;28;20507;-81
2022/08/30 07:54:46;;;;;;;8.35;7.15;;;23.50;99.90;;;;;;8269810;28;20036;-81
2022/08/30 07:58:47;;;;;;;8.35;7.45;;;23.50;99.90;;;;;;8277873;28;20599;-80
2022/08/30 08:02:47;;;;;;;8.60;7.70;;;23.80;99.90;;;;;;8277986;28;20109;-81
2022/08/30 08:06:48;;;;;;;8.68;7.40;;;24.10;99.90;;;;;;8276764;28;20041;-82
2022/08/30 08:10:48;;;;;;;9.40;7.38;;;23.70;99.90;;;;;;8277746;28;20022;-81
2022/08/30 08:14:49;;;;;;;8.07;6.93;;;24.20;99.90;;;;;;8294470;28;20037;-81
2022/08/30 08:18:51;;;;;;;10.27;6.88;;;24.30;99.90;;;;;;8277180;28;20056;-81
2022/08/30 08:22:52;;;;;;;7.47;6.03;;;24.50;99.90;;;;;;8277712;28;20022;-81
2022/08/30 08:26:52;;;;;;;7.43;6.63;;;24.70;99.90;;;;;;8260824;28;20038;-82
2022/08/30 08:30:53;;;;;;;7.32;6.18;;;25.00;99.90;;;;;;8295205;28;20062;-81
2022/08/30 08:34:53;;;;;;;7.13;6.43;;;25.50;99.90;;;;;;8301530;28;20033;-81
2022/08/30 08:38:54;;;;;;;5.90;5.30;;;25.80;99.90;;;;;;8276919;28;20029;-82
2022/08/30 08:42:59;;;;;;;6.18;5.40;;;26.00;99.90;;;;;;8294417;28;20451;-81
2022/08/30 08:47:28;;;;;;;5.75;5.07;;;26.30;99.90;;;;;;8285108;28;20034;-81
2022/08/30 08:55:54;;;;;;;6.43;5.35;;;26.70;99.90;;;;;;8294248;28;20562;-81
2022/08/30 08:59:55;;;;;;;7.32;5.10;;;26.70;99.90;;;;;;8277141;28;20049;-82
2022/08/30 09:04:00;;;;;;;7.45;5.07;;;27.00;99.90;;;;;;8293943;28;20030;-81
2022/08/30 09:08:04;;;;;;;6.53;4.43;;;27.30;99.90;;;;;;8275814;28;20030;-82
2022/08/30 09:12:07;;;;;;;10.10;4.43;;;27.40;99.90;;;;;;8280200;28;20030;-82
2022/08/30 09:16:07;;;;;;;5.18;4.40;;;27.70;99.90;;;;;;8283036;28;20049;-82
2022/08/30 09:20:08;;;;;;;5.93;4.70;;;27.60;99.90;;;;;;8281558;28;20025;-82
2022/08/30 09:24:14;;;;;;;9.55;4.70;;;27.20;99.90;;;;;;8298727;28;20105;-82
2022/08/30 09:28:21;;;;;;;5.82;4.90;;;27.20;99.90;;;;;;8281519;28;20034;-82
2022/08/30 09:32:24;;;;;;;7.65;4.97;;;26.40;99.90;;;;;;8299439;28;20034;-82
2022/08/30 09:36:27;;;;;;;7.38;4.88;;;26.20;99.90;;;;;;8273060;28;20034;-82
2022/08/30 09:40:38;;;;;;;5.88;4.68;;;26.20;99.90;;;;;;8280870;28;20029;-82
2022/08/30 09:44:38;;;;;;;5.22;4.40;;;26.50;99.90;;;;;;8297531;28;20017;-82
2022/08/30 09:48:43;;;;;;;4.43;4.03;;;26.80;99.90;;;;;;8298056;28;20088;-82
2022/08/30 09:53:09;;;;;;;5.78;4.53;;;27.20;99.90;;;;;;8280826;28;20088;-82
2022/08/30 09:57:45;;;;;;;5.57;4.22;;;26.70;99.90;;;;;;8289448;28;20112;-81
2022/08/30 10:01:51;;;;;;;6.75;4.65;;;27.20;99.90;;;;;;8296069;28;20018;-82
2022/08/30 10:06:21;;;;;;;4.30;3.90;;;27.40;99.90;;;;;;8278973;28;20053;-82
2022/08/30 10:10:48;;;;;;;4.95;4.30;;;27.40;99.90;;;;;;8273526;28;20041;-82
2022/08/30 10:15:13;;;;;;;4.55;3.10;;;27.60;99.90;;;;;;8294968;28;20036;-82
2022/08/30 10:19:20;;;;;;;4.97;3.80;;;27.90;99.90;;;;;;8273185;28;20597;-82
2022/08/30 10:23:28;;;;;;;4.43;3.30;;;27.70;99.90;;;;;;8307369;28;20025;-81
2022/08/30 10:27:37;;;;;;;3.50;3.20;;;28.10;99.90;;;;;;8296209;28;20022;-81
2022/08/30 10:32:01;;;;;;;4.28;3.63;;;28.80;99.10;;;;;;8263558;28;20036;-82
2022/08/30 10:36:08;;;;;;;4.28;3.70;;;29.20;98.60;;;;;;8295950;28;20057;-83
2022/08/30 10:44:50;;;;;;;4.90;3.90;;;29.70;96.30;;;;;;8296164;28;20109;-82
2022/08/30 10:48:52;;;;;;;5.30;3.60;;;30.20;96.40;;;;;;8270018;28;20041;-82
2022/08/30 10:52:59;;;;;;;3.95;3.20;;;30.00;93.20;;;;;;8278693;28;20030;-82
2022/08/30 10:56:59;;;;;;;3.83;3.40;;;29.60;94.30;;;;;;8287449;28;20311;-82
2022/08/30 11:01:28;;;;;;;4.25;3.80;;;30.00;94.30;;;;;;8295836;28;20018;-82
2022/08/30 11:05:34;;;;;;;4.78;4.28;;;29.90;97.40;;;;;;8291098;28;20033;-82
2022/08/30 11:09:41;;;;;;;5.07;3.70;;;30.40;98.30;;;;;;8310105;28;20029;-82
2022/08/30 11:13:44;;;;;;;4.22;3.83;;;30.90;94.90;;;;;;8302784;28;20038;-82
2022/08/30 11:17:53;;;;;;;5.07;4.00;;;31.80;91.90;;;;;;8295998;28;20022;-82
2022/08/30 11:22:27;;;;;;;4.47;3.87;;;31.30;92.00;;;;;;8263383;28;20034;-82
2022/08/30 11:26:55;;;;;;;4.20;3.50;;;30.60;91.40;;;;;;8291915;28;20037;-82
2022/08/30 11:31:07;;;;;;;3.30;2.97;;;31.60;86.50;;;;;;8303769;28;20025;-82
2022/08/30 11:35:08;;;;;;;3.78;3.20;;;31.50;83.80;;;;;;8287968;28;20034;-82
2022/08/30 11:39:11;;;;;;;4.93;3.38;;;31.10;82.90;;;;;;8295668;28;20029;-82
2022/08/30 11:43:38;;;;;;;3.72;3.40;;;30.00;86.40;;;;;;8270196;28;20025;-81
2022/08/30 11:47:49;;;;;;;4.40;4.00;;;29.40;90.00;;;;;;8293751;28;20068;-82
2022/08/30 11:52:07;;;;;;;4.45;3.83;;;29.70;90.00;;;;;;8295541;28;20483;-82
2022/08/30 11:56:44;;;;;;;5.13;3.85;;;29.90;87.90;;;;;;8294882;28;20439;-82
2022/08/30 12:00:46;;;;;;;4.57;3.85;;;30.50;87.80;;;;;;8296141;28;20056;-82
2022/08/30 12:04:47;;;;;;;4.60;3.85;;;30.70;88.70;;;;;;8293993;28;20088;-80
2022/08/30 12:08:50;;;;;;;3.80;3.40;;;29.90;90.10;;;;;;8294732;28;20022;-81
2022/08/30 12:12:52;;;;;;;4.88;3.65;;;29.40;90.00;;;;;;8294570;28;20407;-82
2022/08/30 12:21:17;;;;;;;4.70;3.50;;;29.00;93.10;;;;;;8289805;28;20061;-81
2022/08/30 12:25:29;;;;;;;3.85;3.45;;;31.00;90.40;;;;;;8294529;28;20026;-82
2022/08/30 12:29:30;;;;;;;3.85;3.40;;;32.70;83.30;;;;;;8277287;28;20030;-82
2022/08/30 12:33:40;;;;;;;4.30;3.72;;;34.30;77.90;;;;;;8294850;28;20061;-82
2022/08/30 12:37:41;;;;;;;5.80;3.80;;;33.90;75.00;;;;;;8293940;28;20407;-82
2022/08/30 12:41:43;;;;;;;5.38;3.40;;;33.20;73.80;;;;;;8308404;28;20022;-82
2022/08/30 12:45:47;;;;;;;4.45;4.03;;;31.90;81.80;;;;;;8292179;28;20377;-83
2022/08/30 12:49:49;;;;;;;3.80;2.90;;;32.30;80.90;;;;;;8276146;28;20113;-82
2022/08/30 12:53:50;;;;;;;4.72;3.50;;;31.80;84.70;;;;;;8294393;28;20022;-82
2022/08/30 12:58:12;;;;;;;4.38;3.33;;;30.30;85.40;;;;;;8275798;28;20022;-82
2022/08/30 13:02:17;;;;;;;3.67;3.33;;;29.90;83.20;;;;;;8293947;28;20033;-82
2022/08/30 13:06:56;;;;;;;4.10;3.67;;;30.60;89.10;;;;;;8275598;28;20037;-82
2022/08/30 13:11:20;;;;;;;4.68;3.40;;;31.40;86.10;;;;;;8293842;28;20030;-80
2022/08/30 13:15:31;;;;;;;4.40;3.42;;;32.10;74.50;;;;;;8287512;28;20060;-82
2022/08/30 13:19:39;;;;;;;6.88;3.60;;;32.70;76.80;;;;;;8294073;28;20018;-81
2022/08/30 13:23:40;;;;;;;6.78;3.60;;;33.10;73.30;;;;;;8294150;28;20026;-82
2022/08/30 13:27:40;;;;;;;3.47;3.17;;;34.00;73.90;;;;;;8302166;28;20611;-81
2022/08/30 13:31:41;;;;;;;4.30;3.03;;;34.10;70.20;;;;;;8294016;28;20061;-82
2022/08/30 13:35:41;;;;;;;4.30;3.40;;;35.40;66.50;;;;;;8276075;28;20033;-81
2022/08/30 13:39:42;;;;;;;3.72;3.30;;;35.50;64.20;;;;;;8293777;28;20060;-82
2022/08/30 13:43:43;;;;;;;3.90;3.10;;;36.30;64.50;;;;;;8276317;28;20408;-82
2022/08/30 13:47:45;;;;;;;3.47;3.17;;;35.70;63.60;;;;;;8292937;28;20034;-82
2022/08/30 13:51:47;;;;;;;3.65;3.35;;;35.80;60.50;;;;;;8275094;28;20037;-83
2022/08/30 13:55:47;;;;;;;3.70;3.03;;;37.00;58.70;;;;;;8264902;28;20022;-81
2022/08/30 13:59:48;;;;;;;3.47;3.15;;;35.40;60.50;;;;;;8279674;28;20499;-82
2022/08/30 14:03:48;;;;;;;4.68;3.53;;;32.50;70.60;;;;;;8297575;28;20030;-82
2022/08/30 14:07:49;;;;;;;4.00;3.30;;;31.40;74.20;;;;;;8280374;28;20594;-83
2022/08/30 14:11:49;;;;;;;3.67;3.17;;;31.70;75.10;;;;;;8280779;28;20030;-82
2022/08/30 14:15:51;;;;;;;4.10;3.70;;;31.10;77.10;;;;;;8297733;28;20022;-81
2022/08/30 14:19:51;;;;;;;3.80;3.38;;;31.90;73.60;;;;;;8297588;28;20049;-81
2022/08/30 14:23:53;;;;;;;4.45;3.30;;;34.20;64.80;;;;;;8280706;28;20100;-81
2022/08/30 14:27:54;;;;;;;4.25;3.67;;;33.90;66.20;;;;;;8272522;28;20029;-81
2022/08/30 14:31:55;;;;;;;4.10;3.70;;;33.10;69.40;;;;;;8274610;28;20042;-81
2022/08/30 14:35:56;;;;;;;5.88;3.50;;;31.40;74.30;;;;;;8297824;28;20033;-81
2022/08/30 14:39:56;;;;;;;4.00;3.33;;;30.60;76.00;;;;;;8297160;28;20065;-82
2022/08/30 14:43:57;;;;;;;3.83;3.42;;;33.20;70.90;;;;;;8298200;28;20030;-81
2022/08/30 14:47:59;;;;;;;4.00;3.60;;;35.60;63.60;;;;;;8271530;28;20037;-81
2022/08/30 14:52:00;;;;;;;3.85;3.55;;;35.80;63.30;;;;;;8279464;28;20109;-81
2022/08/30 14:56:10;;;;;;;3.92;3.53;;;34.10;65.30;;;;;;8296925;28;20029;-81
2022/08/30 15:00:12;;;;;;;4.40;3.47;;;29.90;70.50;;;;;;8271953;28;20464;-81
2022/08/30 15:04:13;;;;;;;7.70;6.47;;;27.70;83.40;;;;;;8296719;28;20022;-80
2022/08/30 15:08:14;;;;;;;5.55;3.90;;;27.50;82.30;;;;;;8284385;28;20033;-81
2022/08/30 15:12:14;;;;;;;6.28;3.88;;;27.30;89.00;;;;;;8283130;28;20037;-79
2022/08/30 15:16:19;;;;;;;4.28;3.88;;;27.40;88.00;;;;;;8284008;28;20459;-81
2022/08/30 15:20:19;;;;;;;4.53;3.70;;;27.60;84.60;;;;;;8279042;28;20480;-82
2022/08/30 15:24:22;;;;;;;4.07;3.67;;;27.60;87.90;;;;;;8296107;28;20080;-81
2022/08/30 15:28:23;;;;;;;4.25;3.83;;;28.60;83.00;;;;;;8278671;28;20026;-81
2022/08/30 15:32:23;;;;;;;5.13;3.92;;;28.80;81.50;;;;;;8278979;28;20103;-81
2022/08/30 15:36:26;;;;;;;4.57;4.03;;;27.80;82.30;;;;;;8310857;28;20503;-81
2022/08/30 15:40:28;;;;;;;6.65;4.22;;;26.40;90.40;;;;;;8295677;28;20026;-81
2022/08/30 15:44:30;;;;;;;4.57;4.18;;;27.30;87.30;;;;;;8294943;28;20428;-81
2022/08/30 15:48:30;;;;;;;4.80;3.70;;;29.50;82.60;;;;;;8278284;28;20029;-82
2022/08/30 15:52:31;;;;;;;4.40;3.95;;;29.80;77.40;;;;;;8296357;28;20033;-81
2022/08/30 15:56:32;;;;;;;4.35;3.80;;;28.70;81.60;;;;;;8295032;28;20030;-82
2022/08/30 16:00:33;;;;;;;6.40;4.18;;;27.50;84.20;;;;;;8295814;28;20081;-82
2022/08/30 16:04:34;;;;;;;4.55;3.80;;;26.60;91.80;;;;;;8277439;28;20076;-81
2022/08/30 16:08:34;;;;;;;4.35;3.83;;;25.80;92.40;;;;;;8284015;28;20044;-82
2022/08/30 16:12:35;;;;;;;5.13;4.57;;;25.40;94.90;;;;;;8295617;28;20065;-82
2022/08/30 16:16:36;;;;;;;4.50;4.10;;;25.10;96.10;;;;;;8309237;28;20511;-83
2022/08/30 16:20:36;;;;;;;4.85;4.00;;;24.90;97.20;;;;;;8293260;28;20480;-82
2022/08/30 16:24:37;;;;;;;4.88;4.28;;;24.90;97.20;;;;;;8294008;28;20029;-82
2022/08/30 16:28:40;;;;;;;5.57;4.13;;;24.90;97.80;;;;;;8301965;28;20030;-83
2022/08/30 16:32:41;;;;;;;4.97;4.32;;;24.80;99.90;;;;;;8294652;28;20030;-82
2022/08/30 16:36:42;;;;;;;5.07;4.57;;;24.60;99.90;;;;;;8276199;28;20029;-82
2022/08/30 16:40:42;;;;;;;7.32;4.95;;;24.30;99.90;;;;;;8301087;28;20050;-83
2022/08/30 16:44:46;;;;;;;5.57;4.65;;;24.10;99.90;;;;;;8294612;28;20101;-82
2022/08/30 16:48:47;;;;;;;5.93;4.57;;;23.80;99.90;;;;;;8267310;28;20449;-82
2022/08/30 16:52:48;;;;;;;6.63;4.43;;;23.60;99.90;;;;;;8294731;28;20029;-82
2022/08/30 16:56:49;;;;;;;5.45;4.57;;;23.40;99.90;;;;;;8276991;28;20033;-83
2022/08/30 17:00:50;;;;;;;5.85;4.65;;;23.10;99.90;;;;;;8275864;28;20026;-83
2022/08/30 17:04:51;;;;;;;4.72;4.32;;;22.70;99.90;;;;;;8279078;28;20021;-84
2022/08/30 17:08:51;;;;;;;6.18;4.63;;;22.60;99.90;;;;;;8283535;28;20088;-83
2022/08/30 17:12:52;;;;;;;5.18;4.63;;;22.30;99.90;;;;;;8286380;28;20021;-80
2022/08/30 17:16:52;;;;;;;5.28;4.38;;;22.40;99.90;;;;;;8294541;28;20030;-80
2022/08/30 17:20:53;;;;;;;5.32;4.78;;;22.30;99.90;;;;;;8305545;28;20034;-80
2022/08/30 17:24:53;;;;;;;6.68;4.82;;;22.00;99.90;;;;;;8290297;28;20021;-80
2022/08/30 17:28:54;;;;;;;5.53;4.63;;;21.80;99.90;;;;;;8278569;28;20172;-80
2022/08/30 17:32:54;;;;;;;5.78;4.50;;;21.50;99.90;;;;;;8278452;28;20034;-80
2022/08/30 17:36:58;;;;;;;5.82;5.07;;;21.30;99.90;;;;;;8297404;28;20041;-79
2022/08/30 17:41:07;;;;;;;10.95;5.07;;;21.40;99.90;;;;;;8282571;28;20419;-79
2022/08/30 17:45:10;;;;;;;5.22;4.70;;;21.10;99.90;;;;;;8282191;28;20025;-80
2022/08/30 17:49:11;;;;;;;6.68;5.35;;;20.60;99.90;;;;;;8281116;28;20045;-78
2022/08/30 17:53:11;;;;;;;6.00;4.80;;;20.20;99.90;;;;;;8284378;28;20685;-79
2022/08/30 17:57:12;;;;;;;6.85;5.63;;;20.00;99.90;;;;;;8294997;28;20567;-78
2022/08/30 18:01:13;;;;;;;6.55;5.35;;;20.00;99.90;;;;;;8277214;28;20026;-79
2022/08/30 18:05:14;;;;;;;6.40;5.55;;;19.60;99.90;;;;;;8291330;28;20500;-79
2022/08/30 18:09:14;;;;;;;6.53;5.65;;;19.60;99.90;;;;;;8278810;28;20025;-79
2022/08/30 18:13:15;;;;;;;6.50;5.53;;;19.30;99.90;;;;;;8289060;28;20084;-79
2022/08/30 18:17:15;;;;;;;7.85;5.88;;;19.00;99.90;;;;;;8288339;28;20033;-79
2022/08/30 18:21:18;;;;;;;6.95;5.70;;;18.80;99.90;;;;;;8292420;28;20029;-78
2022/08/30 18:25:18;;;;;;;6.38;5.72;;;18.70;99.90;;;;;;8288813;28;20037;-79
2022/08/30 18:29:19;;;;;;;7.15;5.78;;;18.70;99.90;;;;;;8282234;28;20030;-79
2022/08/30 18:33:20;;;;;;;8.32;5.82;;;18.50;99.90;;;;;;8307067;28;20129;-79
2022/08/30 18:37:20;;;;;;;7.75;5.88;;;18.30;99.90;;;;;;8297918;28;20432;-78
2022/08/30 18:41:21;;;;;;;7.25;5.65;;;18.10;99.90;;;;;;8305334;28;20611;-78
2022/08/30 18:45:22;;;;;;;8.23;6.43;;;17.90;99.90;;;;;;8280191;28;20034;-78
2022/08/30 18:49:24;;;;;;;10.23;6.95;;;17.60;99.90;;;;;;8303630;28;20061;-79
2022/08/30 18:53:26;;;;;;;11.18;8.38;;;17.60;99.90;;;;;;8287893;28;20038;-79
2022/08/30 18:57:26;;;;;;;10.93;7.22;;;17.50;99.90;;;;;;8284042;28;20033;-79
2022/08/30 19:01:27;;;;;;;13.07;6.93;;;17.50;99.90;;;;;;8283701;28;20028;-79
2022/08/30 19:05:27;;;;;;;8.02;6.70;;;17.50;99.90;;;;;;8283899;28;20159;-78
2022/08/30 19:09:28;;;;;;;10.10;6.90;;;17.40;99.90;;;;;;8288965;28;20033;-79
2022/08/30 19:13:28;;;;;;;8.35;6.13;;;17.50;99.90;;;;;;8288174;28;20026;-77
2022/08/30 19:17:29;;;;;;;7.47;6.28;;;17.50;99.90;;;;;;8302639;28;20136;-78
2022/08/30 19:21:29;;;;;;;8.02;6.35;;;17.40;99.90;;;;;;8302181;28;20021;-79
2022/08/30 19:25:30;;;;;;;7.35;6.50;;;17.20;99.90;;;;;;8288751;28;20014;-79
2022/08/30 19:29:31;;;;;;;9.65;6.50;;;17.20;99.90;;;;;;8301286;28;20034;-78
2022/08/30 19:33:31;;;;;;;9.10;7.00;;;17.40;99.90;;;;;;8302931;28;20095;-78
2022/08/30 19:37:32;;;;;;;7.20;6.50;;;17.30;99.90;;;;;;8293940;28;20034;-79
2022/08/30 19:41:33;;;;;;;7.03;6.25;;;17.20;99.90;;;;;;8278528;28;20026;-77
2022/08/30 19:45:34;;;;;;;9.27;6.53;;;17.20;99.90;;;;;;8273526;28;20040;-79
2022/08/30 19:49:34;;;;;;;7.35;6.03;;;17.20;99.90;;;;;;8275750;28;20030;-83
2022/08/30 19:53:35;;;;;;;8.70;6.97;;;17.20;99.90;;;;;;8290988;28;20030;-81
2022/08/30 19:57:36;;;;;;;7.57;6.13;;;17.20;99.90;;;;;;8302484;28;20030;-82
2022/08/30 20:01:36;;;;;;;8.68;5.90;;;17.10;99.90;;;;;;8295177;28;20471;-83
2022/08/30 20:05:37;;;;;;;7.05;6.18;;;17.10;99.90;;;;;;8298000;28;20041;-82
2022/08/30 20:09:38;;;;;;;11.25;6.35;;;17.20;99.90;;;;;;8283192;28;20038;-82
2022/08/30 20:13:38;;;;;;;9.73;6.47;;;17.20;99.90;;;;;;8279992;28;20487;-82
2022/08/30 20:17:41;;;;;;;11.13;6.90;;;17.20;99.90;;;;;;8277562;28;20026;-82
2022/08/30 20:21:42;;;;;;;9.75;6.50;;;16.90;99.90;;;;;;8298785;28;20018;-82
2022/08/30 20:25:43;;;;;;;10.23;7.43;;;16.90;99.90;;;;;;8305294;28;20092;-82
2022/08/30 20:29:43;;;;;;;9.25;6.97;;;16.70;99.90;;;;;;8288866;28;20103;-82
2022/08/30 20:33:44;;;;;;;9.32;6.63;;;16.80;99.90;;;;;;8279996;28;20531;-82
2022/08/30 20:37:45;;;;;;;9.25;7.43;;;16.80;99.90;;;;;;8278254;28;20049;-81
2022/08/30 20:41:47;;;;;;;10.95;7.28;;;16.90;99.90;;;;;;8282433;28;20062;-81
2022/08/30 20:45:48;;;;;;;10.32;7.20;;;16.90;99.90;;;;;;8275990;28;20028;-81
2022/08/30 20:49:48;;;;;;;11.80;8.07;;;16.70;99.90;;;;;;8277892;28;20097;-81
2022/08/30 20:53:49;;;;;;;10.68;7.68;;;16.70;99.90;;;;;;8293920;28;20034;-81
2022/08/30 20:57:49;;;;;;;8.75;7.47;;;17.00;99.90;;;;;;8275362;28;20037;-82
2022/08/30 21:01:50;;;;;;;10.25;7.32;;;16.90;99.90;;;;;;8278017;28;20018;-82
2022/08/30 21:05:50;;;;;;;8.73;6.85;;;16.90;99.90;;;;;;8295915;28;20507;-82
2022/08/30 21:09:52;;;;;;;9.07;7.53;;;17.00;99.90;;;;;;8286049;28;20026;-82
2022/08/30 21:13:53;;;;;;;9.85;8.15;;;17.30;99.90;;;;;;8302349;28;20369;-82
2022/08/30 21:17:53;;;;;;;10.70;8.13;;;17.50;99.90;;;;;;8283017;28;20025;-82